Celik 1 — 9HKY9 — position and weather

sailwx.info

Track history (hours):
 
Tides and Currents Weather Stations Pressure Air Temp Water Temp Dewpoint Dewpoint Depression Visibility Wind Speed Wind Dir Waves Ship Positions

Celik 1

Last reported at 2017-Jun-27 04:52 UTC. Time now 2017-Jun-28 14:04 UTC.
Position N 45°09' E 030°41'.

Length 121 m; draft 6.6 m.

Type: Cargo ship. MMSI: 249114000.

Date/timePositionNaut miles runAvg speedWind from/ knotsBaromVisibWave heightAir tempDewpointWater temp
2017-Jun-27 04:52N 45°09' E 030°41'8 9.9
2017-Jun-27 04:05N 45°16' E 030°44'1 9.7
2017-Jun-27 04:01N 45°17' E 030°45'5 9.8
2017-Jun-27 03:31N 45°21' E 030°47'5 9.8
2017-Jun-27 03:00N 45°26' E 030°49'5 9.6
2017-Jun-27 02:31N 45°31' E 030°51'5 9.5
2017-Jun-27 02:00N 45°35' E 030°53'7 9.7
2017-Jun-27 01:18N 45°42' E 030°56'3 9.5
2017-Jun-27 01:01N 45°44' E 030°57'5 9.4
2017-Jun-27 00:31N 45°49' E 030°59'5 9.3
2017-Jun-27 00:00N 45°53' E 031°01'5 9.1
2017-Jun-26 23:30N 45°58' E 031°03'4 9.0
2017-Jun-26 23:00N 46°02' E 031°04'5 9.0
2017-Jun-26 22:31N 46°07' E 031°04'4 8.8
2017-Jun-26 22:01N 46°10' E 031°01'5 9.3
2017-Jun-26 21:31N 46°13' E 030°56'5 9.3
2017-Jun-26 21:01N 46°16' E 030°50'5 9.5
2017-Jun-26 20:31N 46°18' E 030°44'4 7.4
2017-Jun-26 20:00N 46°20' E 030°39'0 0.9
2017-Jun-26 19:30N 46°20' E 030°39'0 0.0
2017-Jun-26 19:00N 46°20' E 030°39'0 0.0
2017-Jun-26 18:29N 46°20' E 030°39'0 0.0
2017-Jun-26 18:01N 46°20' E 030°39'0 0.0
2017-Jun-26 17:30N 46°20' E 030°39'0 0.0
2017-Jun-26 17:01N 46°20' E 030°39'0 0.0
2017-Jun-26 16:29N 46°20' E 030°39'0 0.0
2017-Jun-26 16:00N 46°20' E 030°39'0 0.0
2017-Jun-26 15:29N 46°20' E 030°39'0 0.0
2017-Jun-26 15:00N 46°20' E 030°39'0 0.0
2017-Jun-26 14:29N 46°20' E 030°39'0 0.0
2017-Jun-26 13:29N 46°20' E 030°39'0 0.0
2017-Jun-26 13:00N 46°20' E 030°39'0 0.0
2017-Jun-26 12:29N 46°20' E 030°39'0 0.0
2017-Jun-26 12:00N 46°20' E 030°39'0 0.0
2017-Jun-26 11:29N 46°20' E 030°39'0 0.0
2017-Jun-26 11:01N 46°20' E 030°39'0 0.0
2017-Jun-26 10:30N 46°20' E 030°39'0 0.0
2017-Jun-26 10:00N 46°20' E 030°39'0 0.0
2017-Jun-26 09:29N 46°20' E 030°39'0 0.0
2017-Jun-26 09:01N 46°20' E 030°39'0 0.0
2017-Jun-26 08:30N 46°20' E 030°39'0 0.0
2017-Jun-26 08:01N 46°20' E 030°39'0 0.0
2017-Jun-26 07:31N 46°20' E 030°39'0 0.0
2017-Jun-26 07:00N 46°20' E 030°39'0 0.0
2017-Jun-26 06:29N 46°20' E 030°39'0 0.0
2017-Jun-26 06:01N 46°20' E 030°39'0 0.0
2017-Jun-26 05:30N 46°20' E 030°39'0 0.0
2017-Jun-26 05:00N 46°20' E 030°39'0 0.0
2017-Jun-26 04:30N 46°20' E 030°39'0 0.0
2017-Jun-26 04:00N 46°20' E 030°39'0 0.0
2017-Jun-26 03:30N 46°20' E 030°39'0 0.0
2017-Jun-26 03:01N 46°20' E 030°39'0 0.0
2017-Jun-26 02:30N 46°20' E 030°39'0 0.0
2017-Jun-26 02:01N 46°20' E 030°39'0 0.0
2017-Jun-26 01:30N 46°20' E 030°39'0 0.0
2017-Jun-26 01:00N 46°20' E 030°39'0 0.0
2017-Jun-26 00:29N 46°20' E 030°39'0 0.0
2017-Jun-26 00:00N 46°20' E 030°39'0 0.0
2017-Jun-25 23:30N 46°20' E 030°39'0 0.0
2017-Jun-25 23:00N 46°20' E 030°39'0 0.0
2017-Jun-25 22:30N 46°20' E 030°39'0 0.0
2017-Jun-25 22:00N 46°20' E 030°39'0 0.0
2017-Jun-25 21:31N 46°20' E 030°39'0 0.0
2017-Jun-25 21:01N 46°20' E 030°39'0 0.0
2017-Jun-25 20:31N 46°20' E 030°39'0 0.0
2017-Jun-25 20:01N 46°20' E 030°39'0 0.0
2017-Jun-25 19:30N 46°20' E 030°39'0 0.0
2017-Jun-25 19:00N 46°20' E 030°39'0 0.0
2017-Jun-25 18:29N 46°20' E 030°39'0 0.0
2017-Jun-25 18:01N 46°20' E 030°39'0 0.0
2017-Jun-25 17:30N 46°20' E 030°39'0 0.0
2017-Jun-25 17:00N 46°20' E 030°39'0 0.0
2017-Jun-25 16:29N 46°20' E 030°39'0 0.0
2017-Jun-25 16:00N 46°20' E 030°39'0 0.0
2017-Jun-25 15:29N 46°20' E 030°39'0 0.0
2017-Jun-25 15:00N 46°20' E 030°39'0 0.0
2017-Jun-25 14:00N 46°20' E 030°39'0 0.0
2017-Jun-25 13:29N 46°20' E 030°39'0 0.0
2017-Jun-25 13:00N 46°20' E 030°39'0 0.0
2017-Jun-25 12:30N 46°20' E 030°39'0 0.0
2017-Jun-25 12:00N 46°20' E 030°39'0 0.0
2017-Jun-25 11:29N 46°20' E 030°39'0 0.0
2017-Jun-25 11:00N 46°20' E 030°39'0 0.0
2017-Jun-25 10:29N 46°20' E 030°39'0 0.0
2017-Jun-25 10:01N 46°20' E 030°39'0 0.0
2017-Jun-25 09:30N 46°20' E 030°39'0 0.0
2017-Jun-25 09:00N 46°20' E 030°39'0 0.0
2017-Jun-25 08:29N 46°20' E 030°39'0 0.0
2017-Jun-25 08:00N 46°20' E 030°39'0 0.0
2017-Jun-25 07:29N 46°20' E 030°39'0 0.0
2017-Jun-25 07:00N 46°20' E 030°39'0 0.0
2017-Jun-25 06:29N 46°20' E 030°39'0 0.0
2017-Jun-25 06:01N 46°20' E 030°39'0 0.0
2017-Jun-25 05:29N 46°20' E 030°39'0 0.0
2017-Jun-25 05:01N 46°20' E 030°39'0 0.0
2017-Jun-25 04:30N 46°20' E 030°39'0 0.0
2017-Jun-25 04:00N 46°20' E 030°39'0 0.0
2017-Jun-25 03:29N 46°20' E 030°39'0 0.0
2017-Jun-25 03:00N 46°20' E 030°39'0 0.0
2017-Jun-25 02:30N 46°20' E 030°39'0 0.0
2017-Jun-25 02:00N 46°20' E 030°39'0 0.0
2017-Jun-25 01:29N 46°20' E 030°39'0 0.0
2017-Jun-25 01:00N 46°20' E 030°39'0 0.0
2017-Jun-25 00:29N 46°20' E 030°39'0 0.0
2017-Jun-25 00:00N 46°20' E 030°39'0 0.0
2017-Jun-24 23:30N 46°20' E 030°39'0 0.0
2017-Jun-24 23:00N 46°20' E 030°39'0 0.0
2017-Jun-24 22:29N 46°20' E 030°39'0 0.0
2017-Jun-24 22:00N 46°20' E 030°39'0 0.0
2017-Jun-24 21:30N 46°20' E 030°39'0 0.0
2017-Jun-24 21:00N 46°20' E 030°39'0 0.0
2017-Jun-24 20:29N 46°20' E 030°39'0 0.0
2017-Jun-24 20:00N 46°20' E 030°39'0 0.0
2017-Jun-24 19:30N 46°20' E 030°39'0 0.0
2017-Jun-24 19:00N 46°20' E 030°39'0 0.0
2017-Jun-24 18:30N 46°20' E 030°39'0 0.0
2017-Jun-24 18:00N 46°20' E 030°39'0 0.0
2017-Jun-24 17:29N 46°20' E 030°39'2 2.1
2017-Jun-24 16:29N 46°19' E 030°41'2 3.2
2017-Jun-24 16:00N 46°18' E 030°43'4 0.2
2017-Jun-23 17:30N 46°14' E 030°44'0 0.0
2017-Jun-23 17:00N 46°14' E 030°44'0 0.0
2017-Jun-23 14:48N 46°14' E 030°44'0 0.0
2017-Jun-23 13:54N 46°14' E 030°44'0 0.0
2017-Jun-23 13:00N 46°14' E 030°44'0 0.0
2017-Jun-23 12:30N 46°14' E 030°44'0 0.0
2017-Jun-23 11:36N 46°14' E 030°44'0 0.0
2017-Jun-23 11:18N 46°14' E 030°44'0 0.0
2017-Jun-23 10:42N 46°14' E 030°44'0 0.0
2017-Jun-23 10:30N 46°14' E 030°44'0 0.0
2017-Jun-23 10:00N 46°14' E 030°44'0 0.0
2017-Jun-22 06:23N 46°14' E 030°44'0 0.0
2017-Jun-22 06:00N 46°14' E 030°44'0 0.0
2017-Jun-22 05:30N 46°14' E 030°44'0 0.0
2017-Jun-22 04:59N 46°14' E 030°44'0 0.1
2017-Jun-22 04:30N 46°14' E 030°44'0 0.1
2017-Jun-22 03:59N 46°14' E 030°44'0 0.1
2017-Jun-22 03:30N 46°14' E 030°44'0 0.0
2017-Jun-22 02:42N 46°14' E 030°44'0 0.0
2017-Jun-22 02:27N 46°14' E 030°44'0 0.0
2017-Jun-22 01:59N 46°14' E 030°44'0 0.0
2017-Jun-22 01:29N 46°14' E 030°44'0 0.0
2017-Jun-22 01:00N 46°14' E 030°44'0 0.1
2017-Jun-22 00:30N 46°14' E 030°44'0 0.0
2017-Jun-22 00:00N 46°14' E 030°44'  
Track history (hours):
 
Tides and Currents Weather Stations Pressure Air Temp Water Temp Dewpoint Dewpoint Depression Visibility Wind Speed Wind Dir Waves Ship Positions

Celik 1

Last reported at 2017-Jun-27 04:52 UTC. Time now 2017-Jun-28 14:04 UTC.
Position N 45°09' E 030°41'.

Length 121 m; draft 6.6 m.

Type: Cargo ship. MMSI: 249114000.

Date/timePositionNaut miles runAvg speedWind from/ knotsBaromVisibWave heightAir tempDewpointWater temp
2017-Jun-27 04:52N 45°09' E 030°41'8 9.9
2017-Jun-27 04:05N 45°16' E 030°44'1 9.7
2017-Jun-27 04:01N 45°17' E 030°45'5 9.8
2017-Jun-27 03:31N 45°21' E 030°47'5 9.8
2017-Jun-27 03:00N 45°26' E 030°49'5 9.6
2017-Jun-27 02:31N 45°31' E 030°51'5 9.5
2017-Jun-27 02:00N 45°35' E 030°53'7 9.7
2017-Jun-27 01:18N 45°42' E 030°56'3 9.5
2017-Jun-27 01:01N 45°44' E 030°57'5 9.4
2017-Jun-27 00:31N 45°49' E 030°59'5 9.3
2017-Jun-27 00:00N 45°53' E 031°01'5 9.1
2017-Jun-26 23:30N 45°58' E 031°03'4 9.0
2017-Jun-26 23:00N 46°02' E 031°04'5 9.0
2017-Jun-26 22:31N 46°07' E 031°04'4 8.8
2017-Jun-26 22:01N 46°10' E 031°01'5 9.3
2017-Jun-26 21:31N 46°13' E 030°56'5 9.3
2017-Jun-26 21:01N 46°16' E 030°50'5 9.5
2017-Jun-26 20:31N 46°18' E 030°44'4 7.4
2017-Jun-26 20:00N 46°20' E 030°39'0 0.9
2017-Jun-26 19:30N 46°20' E 030°39'0 0.0
2017-Jun-26 19:00N 46°20' E 030°39'0 0.0
2017-Jun-26 18:29N 46°20' E 030°39'0 0.0
2017-Jun-26 18:01N 46°20' E 030°39'0 0.0
2017-Jun-26 17:30N 46°20' E 030°39'0 0.0
2017-Jun-26 17:01N 46°20' E 030°39'0 0.0
2017-Jun-26 16:29N 46°20' E 030°39'0 0.0
2017-Jun-26 16:00N 46°20' E 030°39'0 0.0
2017-Jun-26 15:29N 46°20' E 030°39'0 0.0
2017-Jun-26 15:00N 46°20' E 030°39'0 0.0
2017-Jun-26 14:29N 46°20' E 030°39'0 0.0
2017-Jun-26 13:29N 46°20' E 030°39'0 0.0
2017-Jun-26 13:00N 46°20' E 030°39'0 0.0
2017-Jun-26 12:29N 46°20' E 030°39'0 0.0
2017-Jun-26 12:00N 46°20' E 030°39'0 0.0
2017-Jun-26 11:29N 46°20' E 030°39'0 0.0
2017-Jun-26 11:01N 46°20' E 030°39'0 0.0
2017-Jun-26 10:30N 46°20' E 030°39'0 0.0
2017-Jun-26 10:00N 46°20' E 030°39'0 0.0
2017-Jun-26 09:29N 46°20' E 030°39'0 0.0
2017-Jun-26 09:01N 46°20' E 030°39'0 0.0
2017-Jun-26 08:30N 46°20' E 030°39'0 0.0
2017-Jun-26 08:01N 46°20' E 030°39'0 0.0
2017-Jun-26 07:31N 46°20' E 030°39'0 0.0
2017-Jun-26 07:00N 46°20' E 030°39'0 0.0
2017-Jun-26 06:29N 46°20' E 030°39'0 0.0
2017-Jun-26 06:01N 46°20' E 030°39'0 0.0
2017-Jun-26 05:30N 46°20' E 030°39'0 0.0
2017-Jun-26 05:00N 46°20' E 030°39'0 0.0
2017-Jun-26 04:30N 46°20' E 030°39'0 0.0
2017-Jun-26 04:00N 46°20' E 030°39'0 0.0
2017-Jun-26 03:30N 46°20' E 030°39'0 0.0
2017-Jun-26 03:01N 46°20' E 030°39'0 0.0
2017-Jun-26 02:30N 46°20' E 030°39'0 0.0
2017-Jun-26 02:01N 46°20' E 030°39'0 0.0
2017-Jun-26 01:30N 46°20' E 030°39'0 0.0
2017-Jun-26 01:00N 46°20' E 030°39'0 0.0
2017-Jun-26 00:29N 46°20' E 030°39'0 0.0
2017-Jun-26 00:00N 46°20' E 030°39'0 0.0
2017-Jun-25 23:30N 46°20' E 030°39'0 0.0
2017-Jun-25 23:00N 46°20' E 030°39'0 0.0
2017-Jun-25 22:30N 46°20' E 030°39'0 0.0
2017-Jun-25 22:00N 46°20' E 030°39'0 0.0
2017-Jun-25 21:31N 46°20' E 030°39'0 0.0
2017-Jun-25 21:01N 46°20' E 030°39'0 0.0
2017-Jun-25 20:31N 46°20' E 030°39'0 0.0
2017-Jun-25 20:01N 46°20' E 030°39'0 0.0
2017-Jun-25 19:30N 46°20' E 030°39'0 0.0
2017-Jun-25 19:00N 46°20' E 030°39'0 0.0
2017-Jun-25 18:29N 46°20' E 030°39'0 0.0
2017-Jun-25 18:01N 46°20' E 030°39'0 0.0
2017-Jun-25 17:30N 46°20' E 030°39'0 0.0
2017-Jun-25 17:00N 46°20' E 030°39'0 0.0
2017-Jun-25 16:29N 46°20' E 030°39'0 0.0
2017-Jun-25 16:00N 46°20' E 030°39'0 0.0
2017-Jun-25 15:29N 46°20' E 030°39'0 0.0
2017-Jun-25 15:00N 46°20' E 030°39'0 0.0
2017-Jun-25 14:00N 46°20' E 030°39'0 0.0
2017-Jun-25 13:29N 46°20' E 030°39'0 0.0
2017-Jun-25 13:00N 46°20' E 030°39'0 0.0
2017-Jun-25 12:30N 46°20' E 030°39'0 0.0
2017-Jun-25 12:00N 46°20' E 030°39'0 0.0
2017-Jun-25 11:29N 46°20' E 030°39'0 0.0
2017-Jun-25 11:00N 46°20' E 030°39'0 0.0
2017-Jun-25 10:29N 46°20' E 030°39'0 0.0
2017-Jun-25 10:01N 46°20' E 030°39'0 0.0
2017-Jun-25 09:30N 46°20' E 030°39'0 0.0
2017-Jun-25 09:00N 46°20' E 030°39'0 0.0
2017-Jun-25 08:29N 46°20' E 030°39'0 0.0
2017-Jun-25 08:00N 46°20' E 030°39'0 0.0
2017-Jun-25 07:29N 46°20' E 030°39'0 0.0
2017-Jun-25 07:00N 46°20' E 030°39'0 0.0
2017-Jun-25 06:29N 46°20' E 030°39'0 0.0
2017-Jun-25 06:01N 46°20' E 030°39'0 0.0
2017-Jun-25 05:29N 46°20' E 030°39'0 0.0
2017-Jun-25 05:01N 46°20' E 030°39'0 0.0
2017-Jun-25 04:30N 46°20' E 030°39'0 0.0
2017-Jun-25 04:00N 46°20' E 030°39'0 0.0
2017-Jun-25 03:29N 46°20' E 030°39'0 0.0
2017-Jun-25 03:00N 46°20' E 030°39'0 0.0
2017-Jun-25 02:30N 46°20' E 030°39'0 0.0
2017-Jun-25 02:00N 46°20' E 030°39'0 0.0
2017-Jun-25 01:29N 46°20' E 030°39'0 0.0
2017-Jun-25 01:00N 46°20' E 030°39'0 0.0
2017-Jun-25 00:29N 46°20' E 030°39'0 0.0
2017-Jun-25 00:00N 46°20' E 030°39'0 0.0
2017-Jun-24 23:30N 46°20' E 030°39'0 0.0
2017-Jun-24 23:00N 46°20' E 030°39'0 0.0
2017-Jun-24 22:29N 46°20' E 030°39'0 0.0
2017-Jun-24 22:00N 46°20' E 030°39'0 0.0
2017-Jun-24 21:30N 46°20' E 030°39'0 0.0
2017-Jun-24 21:00N 46°20' E 030°39'0 0.0
2017-Jun-24 20:29N 46°20' E 030°39'0 0.0
2017-Jun-24 20:00N 46°20' E 030°39'0 0.0
2017-Jun-24 19:30N 46°20' E 030°39'0 0.0
2017-Jun-24 19:00N 46°20' E 030°39'0 0.0
2017-Jun-24 18:30N 46°20' E 030°39'0 0.0
2017-Jun-24 18:00N 46°20' E 030°39'0 0.0
2017-Jun-24 17:29N 46°20' E 030°39'2 2.1
2017-Jun-24 16:29N 46°19' E 030°41'2 3.2
2017-Jun-24 16:00N 46°18' E 030°43'4 0.2
2017-Jun-23 17:30N 46°14' E 030°44'0 0.0
2017-Jun-23 17:00N 46°14' E 030°44'0 0.0
2017-Jun-23 14:48N 46°14' E 030°44'0 0.0
2017-Jun-23 13:54N 46°14' E 030°44'0 0.0
2017-Jun-23 13:00N 46°14' E 030°44'0 0.0
2017-Jun-23 12:30N 46°14' E 030°44'0 0.0
2017-Jun-23 11:36N 46°14' E 030°44'0 0.0
2017-Jun-23 11:18N 46°14' E 030°44'0 0.0
2017-Jun-23 10:42N 46°14' E 030°44'0 0.0
2017-Jun-23 10:30N 46°14' E 030°44'0 0.0
2017-Jun-23 10:00N 46°14' E 030°44'0 0.0
2017-Jun-22 06:23N 46°14' E 030°44'0 0.0
2017-Jun-22 06:00N 46°14' E 030°44'0 0.0
2017-Jun-22 05:30N 46°14' E 030°44'0 0.0
2017-Jun-22 04:59N 46°14' E 030°44'0 0.1
2017-Jun-22 04:30N 46°14' E 030°44'0 0.1
2017-Jun-22 03:59N 46°14' E 030°44'0 0.1
2017-Jun-22 03:30N 46°14' E 030°44'0 0.0
2017-Jun-22 02:42N 46°14' E 030°44'0 0.0
2017-Jun-22 02:27N 46°14' E 030°44'0 0.0
2017-Jun-22 01:59N 46°14' E 030°44'0 0.0
2017-Jun-22 01:29N 46°14' E 030°44'0 0.0
2017-Jun-22 01:00N 46°14' E 030°44'0 0.1
2017-Jun-22 00:30N 46°14' E 030°44'0 0.0
2017-Jun-22 00:00N 46°14' E 030°44'  

Dump ship's entire track history